sensor_id;sensor_type;location;lat;lon;timestamp;pressure;altitude;pressure_sealevel;temperature;humidity
18749;BME280;9503;53.560;10.246;2022-09-14T00:01:17;100096.69;;;14.80;99.54
18749;BME280;9503;53.560;10.246;2022-09-14T00:03:44;100092.19;;;14.70;99.82
18749;BME280;9503;53.560;10.246;2022-09-14T00:06:13;100089.56;;;14.69;100.00
18749;BME280;9503;53.560;10.246;2022-09-14T00:08:42;100090.50;;;14.71;100.00
18749;BME280;9503;53.560;10.246;2022-09-14T00:11:10;100087.91;;;14.71;100.00
18749;BME280;9503;53.560;10.246;2022-09-14T00:13:38;100091.19;;;14.63;100.00
18749;BME280;9503;53.560;10.246;2022-09-14T00:16:08;100089.56;;;14.69;100.00
18749;BME280;9503;53.560;10.246;2022-09-14T00:18:36;100083.47;;;14.63;100.00
18749;BME280;9503;53.560;10.246;2022-09-14T00:21:05;100082.47;;;14.58;100.00
18749;BME280;9503;53.560;10.246;2022-09-14T00:23:33;100074.00;;;14.64;100.00
18749;BME280;9503;53.560;10.246;2022-09-14T00:26:03;100074.75;;;14.58;100.00
18749;BME280;9503;53.560;10.246;2022-09-14T00:28:31;100066.88;;;14.54;100.00
18749;BME280;9503;53.560;10.246;2022-09-14T00:31:02;100071.47;;;14.67;100.00
18749;BME280;9503;53.560;10.246;2022-09-14T00:33:29;100067.16;;;14.66;100.00
18749;BME280;9503;53.560;10.246;2022-09-14T00:36:03;100054.63;;;14.45;100.00
18749;BME280;9503;53.560;10.246;2022-09-14T00:38:29;100057.53;;;14.59;100.00
18749;BME280;9503;53.560;10.246;2022-09-14T00:40:56;100056.63;;;14.55;100.00
18749;BME280;9503;53.560;10.246;2022-09-14T00:43:24;100045.97;;;14.42;100.00
18749;BME280;9503;53.560;10.246;2022-09-14T00:45:51;100042.59;;;14.44;100.00
18749;BME280;9503;53.560;10.246;2022-09-14T00:48:19;100041.75;;;14.45;100.00
18749;BME280;9503;53.560;10.246;2022-09-14T00:50:48;100038.41;;;14.48;100.00
18749;BME280;9503;53.560;10.246;2022-09-14T00:53:15;100033.94;;;14.42;100.00
18749;BME280;9503;53.560;10.246;2022-09-14T00:55:41;100025.34;;;14.42;100.00
18749;BME280;9503;53.560;10.246;2022-09-14T00:58:08;100020.03;;;14.34;100.00
18749;BME280;9503;53.560;10.246;2022-09-14T01:00:36;100023.44;;;14.33;100.00
18749;BME280;9503;53.560;10.246;2022-09-14T01:03:03;100017.34;;;14.29;100.00
18749;BME280;9503;53.560;10.246;2022-09-14T01:05:38;100009.53;;;14.25;100.00
18749;BME280;9503;53.560;10.246;2022-09-14T01:08:17;100017.31;;;14.28;100.00
18749;BME280;9503;53.560;10.246;2022-09-14T01:11:15;100012.75;;;14.16;100.00
18749;BME280;9503;53.560;10.246;2022-09-14T01:13:54;100015.41;;;14.19;100.00
18749;BME280;9503;53.560;10.246;2022-09-14T01:16:29;100009.28;;;14.14;100.00
18749;BME280;9503;53.560;10.246;2022-09-14T01:19:00;100012.72;;;14.15;100.00
18749;BME280;9503;53.560;10.246;2022-09-14T01:21:31;100027.13;;;14.05;100.00
18749;BME280;9503;53.560;10.246;2022-09-14T01:24:01;100019.19;;;13.96;100.00
18749;BME280;9503;53.560;10.246;2022-09-14T01:29:45;100023.38;;;13.92;100.00
18749;BME280;9503;53.560;10.246;2022-09-14T01:32:16;100038.03;;;13.95;100.00
18749;BME280;9503;53.560;10.246;2022-09-14T01:34:45;100033.72;;;13.94;100.00
18749;BME280;9503;53.560;10.246;2022-09-14T01:37:16;100032.84;;;13.93;100.00
18749;BME280;9503;53.560;10.246;2022-09-14T01:39:48;100034.59;;;13.94;100.00
18749;BME280;9503;53.560;10.246;2022-09-14T01:42:17;100026.78;;;13.90;100.00
18749;BME280;9503;53.560;10.246;2022-09-14T01:44:49;100021.53;;;13.87;100.00
18749;BME280;9503;53.560;10.246;2022-09-14T01:47:20;100021.50;;;13.85;100.00
18749;BME280;9503;53.560;10.246;2022-09-14T01:49:54;100028.22;;;13.78;100.00
18749;BME280;9503;53.560;10.246;2022-09-14T01:52:26;100027.47;;;13.82;100.00
18749;BME280;9503;53.560;10.246;2022-09-14T01:54:57;100026.53;;;13.80;100.00
18749;BME280;9503;53.560;10.246;2022-09-14T01:57:29;100023.00;;;13.75;100.00
18749;BME280;9503;53.560;10.246;2022-09-14T02:00:04;100016.88;;;13.72;100.00
18749;BME280;9503;53.560;10.246;2022-09-14T02:02:34;100021.13;;;13.70;100.00
18749;BME280;9503;53.560;10.246;2022-09-14T02:05:08;100024.53;;;13.67;100.00
18749;BME280;9503;53.560;10.246;2022-09-14T02:07:36;100018.44;;;13.65;100.00
18749;BME280;9503;53.560;10.246;2022-09-14T02:10:04;100025.34;;;13.66;100.00
18749;BME280;9503;53.560;10.246;2022-09-14T02:12:33;100020.25;;;13.68;100.00
18749;BME280;9503;53.560;10.246;2022-09-14T02:15:03;100023.41;;;13.58;100.00
18749;BME280;9503;53.560;10.246;2022-09-14T02:17:30;100023.50;;;13.61;100.00
18749;BME280;9503;53.560;10.246;2022-09-14T02:19:59;100026.06;;;13.61;100.00
18749;BME280;9503;53.560;10.246;2022-09-14T02:22:27;100024.34;;;13.60;100.00
18749;BME280;9503;53.560;10.246;2022-09-14T02:24:54;100014.91;;;13.60;100.00
18749;BME280;9503;53.560;10.246;2022-09-14T02:27:21;100019.97;;;13.57;100.00
18749;BME280;9503;53.560;10.246;2022-09-14T02:29:48;100024.09;;;13.50;100.00
18749;BME280;9503;53.560;10.246;2022-09-14T02:32:24;100027.47;;;13.48;100.00
18749;BME280;9503;53.560;10.246;2022-09-14T02:34:57;100018.06;;;13.50;100.00
18749;BME280;9503;53.560;10.246;2022-09-14T02:37:36;100010.31;;;13.48;100.00
18749;BME280;9503;53.560;10.246;2022-09-14T02:40:11;100008.56;;;13.47;100.00
18749;BME280;9503;53.560;10.246;2022-09-14T02:42:45;100006.69;;;13.42;100.00
18749;BME280;9503;53.560;10.246;2022-09-14T02:45:21;100012.81;;;13.45;100.00
18749;BME280;9503;53.560;10.246;2022-09-14T02:47:55;100007.66;;;13.45;100.00
18749;BME280;9503;53.560;10.246;2022-09-14T02:50:29;100010.97;;;13.41;100.00
18749;BME280;9503;53.560;10.246;2022-09-14T02:53:00;100011.97;;;13.46;100.00
18749;BME280;9503;53.560;10.246;2022-09-14T02:55:34;100015.97;;;13.35;100.00
18749;BME280;9503;53.560;10.246;2022-09-14T02:58:04;100012.75;;;13.44;100.00
18749;BME280;9503;53.560;10.246;2022-09-14T03:00:38;100006.66;;;13.39;100.00
18749;BME280;9503;53.560;10.246;2022-09-14T03:03:08;100009.44;;;13.48;100.00
18749;BME280;9503;53.560;10.246;2022-09-14T03:05:35;100001.50;;;13.39;100.00
18749;BME280;9503;53.560;10.246;2022-09-14T03:08:03;100007.34;;;13.33;100.00
18749;BME280;9503;53.560;10.246;2022-09-14T03:10:30;100005.59;;;13.31;100.00
18749;BME280;9503;53.560;10.246;2022-09-14T03:12:57;100005.69;;;13.35;100.00
18749;BME280;9503;53.560;10.246;2022-09-14T03:15:24;100002.16;;;13.32;100.00
18749;BME280;9503;53.560;10.246;2022-09-14T03:17:50;100003.84;;;13.30;100.00
18749;BME280;9503;53.560;10.246;2022-09-14T03:20:20;100000.16;;;13.20;100.00
18749;BME280;9503;53.560;10.246;2022-09-14T03:22:47;100000.31;;;13.26;100.00
18749;BME280;9503;53.560;10.246;2022-09-14T03:25:15;99996.06;;;13.28;100.00
18749;BME280;9503;53.560;10.246;2022-09-14T03:27:47;99996.66;;;13.19;100.00
18749;BME280;9503;53.560;10.246;2022-09-14T03:30:14;99999.06;;;13.13;100.00
18749;BME280;9503;53.560;10.246;2022-09-14T03:32:40;99987.22;;;13.18;100.00
18749;BME280;9503;53.560;10.246;2022-09-14T03:35:07;99987.22;;;13.18;100.00
18749;BME280;9503;53.560;10.246;2022-09-14T03:37:37;99988.19;;;13.22;100.00
18749;BME280;9503;53.560;10.246;2022-09-14T03:40:05;99986.59;;;13.27;100.00
18749;BME280;9503;53.560;10.246;2022-09-14T03:42:32;99984.03;;;13.27;100.00
18749;BME280;9503;53.560;10.246;2022-09-14T03:44:59;99977.00;;;13.21;100.00
18749;BME280;9503;53.560;10.246;2022-09-14T03:47:25;99968.19;;;13.13;100.00
18749;BME280;9503;53.560;10.246;2022-09-14T03:49:52;99978.50;;;13.13;100.00
18749;BME280;9503;53.560;10.246;2022-09-14T03:52:19;99975.13;;;13.16;100.00
18749;BME280;9503;53.560;10.246;2022-09-14T03:54:46;99975.69;;;13.04;100.00
18749;BME280;9503;53.560;10.246;2022-09-14T03:57:14;99974.78;;;13.02;100.00
18749;BME280;9503;53.560;10.246;2022-09-14T03:59:41;99973.78;;;12.97;100.00
18749;BME280;9503;53.560;10.246;2022-09-14T04:02:07;99973.59;;;12.89;100.00
18749;BME280;9503;53.560;10.246;2022-09-14T04:04:34;99962.44;;;12.90;100.00
18749;BME280;9503;53.560;10.246;2022-09-14T04:07:00;99967.41;;;12.83;100.00
18749;BME280;9503;53.560;10.246;2022-09-14T04:09:27;99972.31;;;12.73;100.00
18749;BME280;9503;53.560;10.246;2022-09-14T04:11:54;99964.75;;;12.80;100.00
18749;BME280;9503;53.560;10.246;2022-09-14T04:14:22;99954.31;;;12.73;100.00
18749;BME280;9503;53.560;10.246;2022-09-14T04:16:49;99943.25;;;12.78;100.00
18749;BME280;9503;53.560;10.246;2022-09-14T04:19:17;99943.13;;;12.73;100.00
18749;BME280;9503;53.560;10.246;2022-09-14T04:21:43;99944.00;;;12.73;100.00
18749;BME280;9503;53.560;10.246;2022-09-14T04:24:11;99954.19;;;12.70;100.00
18749;BME280;9503;53.560;10.246;2022-09-14T04:26:38;99954.06;;;12.64;100.00
18749;BME280;9503;53.560;10.246;2022-09-14T04:29:06;99956.63;;;12.64;100.00
18749;BME280;9503;53.560;10.246;2022-09-14T04:31:33;99953.34;;;12.70;100.00
18749;BME280;9503;53.560;10.246;2022-09-14T04:33:59;99967.97;;;12.71;100.00
18749;BME280;9503;53.560;10.246;2022-09-14T04:36:28;99965.31;;;12.69;100.00
18749;BME280;9503;53.560;10.246;2022-09-14T04:38:57;99971.63;;;12.81;100.00
18749;BME280;9503;53.560;10.246;2022-09-14T04:41:24;99963.25;;;12.88;100.00
18749;BME280;9503;53.560;10.246;2022-09-14T04:43:53;99969.63;;;13.02;100.00
18749;BME280;9503;53.560;10.246;2022-09-14T04:46:23;99976.78;;;13.14;100.00
18749;BME280;9503;53.560;10.246;2022-09-14T04:48:49;99985.66;;;13.23;100.00
18749;BME280;9503;53.560;10.246;2022-09-14T04:51:18;99988.47;;;13.33;100.00
18749;BME280;9503;53.560;10.246;2022-09-14T04:53:46;99983.38;;;13.36;100.00
18749;BME280;9503;53.560;10.246;2022-09-14T04:56:14;99982.47;;;13.34;100.00
18749;BME280;9503;53.560;10.246;2022-09-14T04:58:42;99983.38;;;13.36;100.00
18749;BME280;9503;53.560;10.246;2022-09-14T05:01:11;99977.50;;;13.41;100.00
18749;BME280;9503;53.560;10.246;2022-09-14T05:03:39;99965.88;;;13.57;100.00
18749;BME280;9503;53.560;10.246;2022-09-14T05:06:08;99968.78;;;13.71;100.00
18749;BME280;9503;53.560;10.246;2022-09-14T05:08:36;99964.63;;;13.77;100.00
18749;BME280;9503;53.560;10.246;2022-09-14T05:11:04;99964.91;;;13.88;100.00
18749;BME280;9503;53.560;10.246;2022-09-14T05:13:32;99959.00;;;13.95;100.00
18749;BME280;9503;53.560;10.246;2022-09-14T05:16:04;99959.97;;;13.99;100.00
18749;BME280;9503;53.560;10.246;2022-09-14T05:18:31;99950.25;;;13.87;100.00
18749;BME280;9503;53.560;10.246;2022-09-14T05:21:01;99955.66;;;13.98;100.00
18749;BME280;9503;53.560;10.246;2022-09-14T05:23:28;99958.13;;;13.95;100.00
18749;BME280;9503;53.560;10.246;2022-09-14T05:25:55;99959.31;;;14.09;100.00
18749;BME280;9503;53.560;10.246;2022-09-14T05:28:21;99958.75;;;14.22;100.00
18749;BME280;9503;53.560;10.246;2022-09-14T05:30:48;99959.56;;;14.20;100.00
18749;BME280;9503;53.560;10.246;2022-09-14T05:33:14;99954.56;;;14.27;100.00
18749;BME280;9503;53.560;10.246;2022-09-14T05:35:41;99951.34;;;14.39;100.00
18749;BME280;9503;53.560;10.246;2022-09-14T05:38:09;99960.41;;;14.19;100.00
18749;BME280;9503;53.560;10.246;2022-09-14T05:40:35;99960.25;;;14.11;100.00
18749;BME280;9503;53.560;10.246;2022-09-14T05:43:02;99962.34;;;13.90;100.00
18749;BME280;9503;53.560;10.246;2022-09-14T05:45:28;99956.63;;;14.03;100.00
18749;BME280;9503;53.560;10.246;2022-09-14T05:47:59;99967.31;;;14.21;100.00
18749;BME280;9503;53.560;10.246;2022-09-14T05:50:25;99966.75;;;14.36;100.00
18749;BME280;9503;53.560;10.246;2022-09-14T05:52:53;99966.47;;;14.22;100.00
18749;BME280;9503;53.560;10.246;2022-09-14T05:55:21;99967.53;;;14.32;100.00
18749;BME280;9503;53.560;10.246;2022-09-14T05:57:48;99980.97;;;14.17;100.00
18749;BME280;9503;53.560;10.246;2022-09-14T06:00:15;99977.09;;;14.37;100.00
18749;BME280;9503;53.560;10.246;2022-09-14T06:02:45;99986.38;;;14.28;100.00
18749;BME280;9503;53.560;10.246;2022-09-14T06:05:11;99977.31;;;14.47;100.00
18749;BME280;9503;53.560;10.246;2022-09-14T06:07:38;99982.75;;;14.60;100.00
18749;BME280;9503;53.560;10.246;2022-09-14T06:10:05;99974.72;;;14.90;100.00
18749;BME280;9503;53.560;10.246;2022-09-14T06:12:33;99971.50;;;15.01;100.00
18749;BME280;9503;53.560;10.246;2022-09-14T06:15:00;99977.38;;;14.93;100.00
18749;BME280;9503;53.560;10.246;2022-09-14T06:17:28;99975.69;;;14.96;100.00
18749;BME280;9503;53.560;10.246;2022-09-14T06:19:54;99976.22;;;15.26;100.00
18749;BME280;9503;53.560;10.246;2022-09-14T06:22:21;99968.59;;;15.32;100.00
18749;BME280;9503;53.560;10.246;2022-09-14T06:24:47;99966.38;;;15.55;100.00
18749;BME280;9503;53.560;10.246;2022-09-14T06:27:14;99974.34;;;15.66;100.00
18749;BME280;9503;53.560;10.246;2022-09-14T06:29:42;99975.06;;;15.59;100.00
18749;BME280;9503;53.560;10.246;2022-09-14T06:32:08;99977.28;;;15.37;99.65
18749;BME280;9503;53.560;10.246;2022-09-14T06:34:35;99967.44;;;15.15;98.57
18749;BME280;9503;53.560;10.246;2022-09-14T06:37:02;99960.78;;;15.29;98.51
18749;BME280;9503;53.560;10.246;2022-09-14T06:39:28;99962.31;;;15.69;99.86
18749;BME280;9503;53.560;10.246;2022-09-14T06:41:55;99964.22;;;15.80;97.46
18749;BME280;9503;53.560;10.246;2022-09-14T06:44:21;99962.16;;;16.18;95.51
18749;BME280;9503;53.560;10.246;2022-09-14T06:46:49;99970.28;;;16.48;93.41
18749;BME280;9503;53.560;10.246;2022-09-14T06:49:16;99964.31;;;16.55;92.36
18749;BME280;9503;53.560;10.246;2022-09-14T06:51:45;99959.66;;;16.25;93.19
18749;BME280;9503;53.560;10.246;2022-09-14T06:54:13;99954.19;;;16.71;92.64
18749;BME280;9503;53.560;10.246;2022-09-14T06:56:42;99959.94;;;16.48;90.48
18749;BME280;9503;53.560;10.246;2022-09-14T06:59:10;99967.31;;;16.18;91.94
18749;BME280;9503;53.560;10.246;2022-09-14T07:01:37;99959.00;;;16.42;91.88
18749;BME280;9503;53.560;10.246;2022-09-14T07:04:05;99957.84;;;16.20;92.30
18749;BME280;9503;53.560;10.246;2022-09-14T07:06:37;99962.59;;;16.56;91.34
18749;BME280;9503;53.560;10.246;2022-09-14T07:09:04;99962.91;;;16.80;90.35
18749;BME280;9503;53.560;10.246;2022-09-14T07:11:31;99967.44;;;17.03;88.96
18749;BME280;9503;53.560;10.246;2022-09-14T07:13:58;99967.44;;;17.01;88.22
18749;BME280;9503;53.560;10.246;2022-09-14T07:16:26;99965.66;;;16.96;89.43
18749;BME280;9503;53.560;10.246;2022-09-14T07:18:54;99973.53;;;17.06;89.17
18749;BME280;9503;53.560;10.246;2022-09-14T07:21:22;99967.28;;;16.84;89.56
18749;BME280;9503;53.560;10.246;2022-09-14T07:23:49;99969.09;;;16.96;89.45
18749;BME280;9503;53.560;10.246;2022-09-14T07:26:18;99969.47;;;17.34;88.38
18749;BME280;9503;53.560;10.246;2022-09-14T07:28:46;99967.44;;;17.03;89.62
18749;BME280;9503;53.560;10.246;2022-09-14T07:31:16;99965.22;;;17.41;87.87
18749;BME280;9503;53.560;10.246;2022-09-14T07:33:43;99967.75;;;17.33;86.97
18749;BME280;9503;53.560;10.246;2022-09-14T07:36:10;99965.47;;;17.75;85.80
18749;BME280;9503;53.560;10.246;2022-09-14T07:38:39;99968.75;;;17.52;86.47
18749;BME280;9503;53.560;10.246;2022-09-14T07:41:06;99973.25;;;17.73;86.32
18749;BME280;9503;53.560;10.246;2022-09-14T07:43:32;99977.56;;;17.76;85.17
18749;BME280;9503;53.560;10.246;2022-09-14T07:46:00;99968.63;;;17.37;86.86
18749;BME280;9503;53.560;10.246;2022-09-14T07:48:29;99969.84;;;17.83;85.93
18749;BME280;9503;53.560;10.246;2022-09-14T07:50:59;99961.72;;;17.40;87.24
18749;BME280;9503;53.560;10.246;2022-09-14T07:53:29;99982.50;;;17.47;87.20
18749;BME280;9503;53.560;10.246;2022-09-14T07:55:58;99974.66;;;17.37;86.95
18749;BME280;9503;53.560;10.246;2022-09-14T07:58:26;99975.84;;;17.76;86.54
18749;BME280;9503;53.560;10.246;2022-09-14T08:00:56;99974.53;;;18.53;84.13
18749;BME280;9503;53.560;10.246;2022-09-14T08:03:23;99977.13;;;18.53;82.84
18749;BME280;9503;53.560;10.246;2022-09-14T08:05:56;99968.41;;;18.31;82.38
18749;BME280;9503;53.560;10.246;2022-09-14T08:08:23;99969.97;;;18.03;82.96
18749;BME280;9503;53.560;10.246;2022-09-14T08:10:50;99968.44;;;18.43;83.93
18749;BME280;9503;53.560;10.246;2022-09-14T08:13:18;99972.84;;;18.60;81.87
18749;BME280;9503;53.560;10.246;2022-09-14T08:15:45;99956.31;;;18.38;82.85
18749;BME280;9503;53.560;10.246;2022-09-14T08:18:11;99959.03;;;18.68;81.55
18749;BME280;9503;53.560;10.246;2022-09-14T08:20:39;99949.53;;;18.73;81.00
18749;BME280;9503;53.560;10.246;2022-09-14T08:23:05;99949.59;;;19.68;77.65
18749;BME280;9503;53.560;10.246;2022-09-14T08:25:32;99943.53;;;19.22;77.63
18749;BME280;9503;53.560;10.246;2022-09-14T08:27:58;99958.09;;;20.33;75.58
18749;BME280;9503;53.560;10.246;2022-09-14T08:30:26;99952.13;;;20.05;76.93
18749;BME280;9503;53.560;10.246;2022-09-14T08:32:53;99952.22;;;19.65;76.16
18749;BME280;9503;53.560;10.246;2022-09-14T08:35:19;99944.41;;;19.25;77.96
18749;BME280;9503;53.560;10.246;2022-09-14T08:37:46;99950.47;;;19.20;78.90
18749;BME280;9503;53.560;10.246;2022-09-14T08:40:12;99945.28;;;19.12;79.67
18749;BME280;9503;53.560;10.246;2022-09-14T08:42:39;99940.06;;;19.44;79.32
18749;BME280;9503;53.560;10.246;2022-09-14T08:45:06;99943.53;;;19.84;77.33
18749;BME280;9503;53.560;10.246;2022-09-14T08:47:37;99938.97;;;20.41;72.76
18749;BME280;9503;53.560;10.246;2022-09-14T08:50:12;99944.16;;;20.52;71.55
18749;BME280;9503;53.560;10.246;2022-09-14T08:52:43;99938.47;;;21.32;69.61
18749;BME280;9503;53.560;10.246;2022-09-14T08:55:21;99941.91;;;21.34;66.27
18749;BME280;9503;53.560;10.246;2022-09-14T08:57:54;99945.69;;;20.85;66.59
18749;BME280;9503;53.560;10.246;2022-09-14T09:00:38;99947.84;;;21.52;63.52
18749;BME280;9503;53.560;10.246;2022-09-14T09:06:11;99933.66;;;22.53;61.53
18749;BME280;9503;53.560;10.246;2022-09-14T09:08:48;99928.91;;;22.17;63.45
18749;BME280;9503;53.560;10.246;2022-09-14T09:11:20;99932.19;;;22.36;61.75
18749;BME280;9503;53.560;10.246;2022-09-14T09:13:49;99935.59;;;22.39;62.63
18749;BME280;9503;53.560;10.246;2022-09-14T09:16:21;99926.03;;;22.38;61.46
18749;BME280;9503;53.560;10.246;2022-09-14T09:18:52;99917.56;;;22.21;62.22
18749;BME280;9503;53.560;10.246;2022-09-14T09:21:24;99919.28;;;22.22;61.60
18749;BME280;9503;53.560;10.246;2022-09-14T09:23:54;99931.66;;;22.03;61.72
18749;BME280;9503;53.560;10.246;2022-09-14T09:26:24;99913.34;;;22.09;61.44
18749;BME280;9503;53.560;10.246;2022-09-14T09:28:56;99906.75;;;22.48;59.99
18749;BME280;9503;53.560;10.246;2022-09-14T09:31:26;99915.16;;;22.69;59.37
18749;BME280;9503;53.560;10.246;2022-09-14T09:33:57;99915.38;;;22.53;59.17
18749;BME280;9503;53.560;10.246;2022-09-14T09:36:24;99915.56;;;22.41;60.41
18749;BME280;9503;53.560;10.246;2022-09-14T09:38:51;99909.03;;;22.03;61.80
18749;BME280;9503;53.560;10.246;2022-09-14T09:41:20;99912.50;;;22.05;60.39
18749;BME280;9503;53.560;10.246;2022-09-14T09:43:59;99912.72;;;21.84;60.84
18749;BME280;9503;53.560;10.246;2022-09-14T09:46:26;99903.19;;;21.83;61.55
18749;BME280;9503;53.560;10.246;2022-09-14T09:48:54;99897.91;;;21.86;60.26
18749;BME280;9503;53.560;10.246;2022-09-14T09:51:28;99897.47;;;22.27;58.97
18749;BME280;9503;53.560;10.246;2022-09-14T09:53:57;99898.19;;;21.62;60.52
18749;BME280;9503;53.560;10.246;2022-09-14T09:56:28;99887.81;;;21.56;60.35
18749;BME280;9503;53.560;10.246;2022-09-14T09:58:56;99872.53;;;21.99;58.84
18749;BME280;9503;53.560;10.246;2022-09-14T10:01:26;99883.09;;;22.57;58.08
18749;BME280;9503;53.560;10.246;2022-09-14T10:04:03;99880.88;;;22.93;57.20
18749;BME280;9503;53.560;10.246;2022-09-14T10:06:40;99881.53;;;22.44;58.33
18749;BME280;9503;53.560;10.246;2022-09-14T10:09:12;99872.56;;;22.62;57.98
18749;BME280;9503;53.560;10.246;2022-09-14T10:11:39;99866.03;;;22.32;58.50
18749;BME280;9503;53.560;10.246;2022-09-14T10:14:21;99870.84;;;21.96;59.51
18749;BME280;9503;53.560;10.246;2022-09-14T10:16:49;99883.16;;;21.84;60.23
18749;BME280;9503;53.560;10.246;2022-09-14T10:19:20;99880.72;;;21.68;60.91
18749;BME280;9503;53.560;10.246;2022-09-14T10:22:13;99888.38;;;21.84;60.56
18749;BME280;9503;53.560;10.246;2022-09-14T10:24:51;99884.53;;;22.18;59.78
18749;BME280;9503;53.560;10.246;2022-09-14T10:27:33;99890.03;;;21.91;60.71
18749;BME280;9503;53.560;10.246;2022-09-14T10:30:02;99882.50;;;22.40;59.63
18749;BME280;9503;53.560;10.246;2022-09-14T10:32:31;99881.31;;;22.59;58.77
18749;BME280;9503;53.560;10.246;2022-09-14T10:34:58;99880.78;;;22.36;59.13
18749;BME280;9503;53.560;10.246;2022-09-14T10:37:36;99878.00;;;22.50;58.74
18749;BME280;9503;53.560;10.246;2022-09-14T10:40:13;99870.69;;;22.72;58.11
18749;BME280;9503;53.560;10.246;2022-09-14T10:42:52;99874.47;;;22.52;58.77
18749;BME280;9503;53.560;10.246;2022-09-14T10:45:27;99874.47;;;22.52;59.06
18749;BME280;9503;53.560;10.246;2022-09-14T10:48:07;99870.03;;;22.57;59.47
18749;BME280;9503;53.560;10.246;2022-09-14T10:50:52;99873.13;;;22.22;60.70
18749;BME280;9503;53.560;10.246;2022-09-14T10:53:36;99882.69;;;22.26;59.74
18749;BME280;9503;53.560;10.246;2022-09-14T10:56:11;99883.91;;;21.93;61.30
18749;BME280;9503;53.560;10.246;2022-09-14T10:59:17;99890.31;;;21.68;61.41
18749;BME280;9503;53.560;10.246;2022-09-14T11:02:18;99877.81;;;21.93;61.05
18749;BME280;9503;53.560;10.246;2022-09-14T11:05:00;99870.47;;;21.50;61.30
18749;BME280;9503;53.560;10.246;2022-09-14T11:07:37;99880.03;;;21.49;60.88
18749;BME280;9503;53.560;10.246;2022-09-14T11:10:17;99876.06;;;21.06;61.63
18749;BME280;9503;53.560;10.246;2022-09-14T11:12:53;99888.03;;;21.33;61.72
18749;BME280;9503;53.560;10.246;2022-09-14T11:15:28;99889.03;;;21.16;61.80
18749;BME280;9503;53.560;10.246;2022-09-14T11:18:10;99896.84;;;21.15;62.47
18749;BME280;9503;53.560;10.246;2022-09-14T11:20:47;99897.84;;;20.98;63.40
18749;BME280;9503;53.560;10.246;2022-09-14T11:23:26;99891.91;;;20.77;63.18
18749;BME280;9503;53.560;10.246;2022-09-14T11:25:59;99888.44;;;20.78;62.85
18749;BME280;9503;53.560;10.246;2022-09-14T11:28:31;99887.59;;;20.79;62.30
18749;BME280;9503;53.560;10.246;2022-09-14T11:31:03;99878.59;;;21.15;61.26
18749;BME280;9503;53.560;10.246;2022-09-14T11:33:36;99870.69;;;21.25;60.98
18749;BME280;9503;53.560;10.246;2022-09-14T11:36:08;99870.97;;;21.84;60.96
18749;BME280;9503;53.560;10.246;2022-09-14T11:38:43;99870.56;;;22.21;59.86
18749;BME280;9503;53.560;10.246;2022-09-14T11:41:20;99867.91;;;22.82;57.74
18749;BME280;9503;53.560;10.246;2022-09-14T11:43:51;99874.44;;;23.11;56.78
18749;BME280;9503;53.560;10.246;2022-09-14T11:46:23;99871.13;;;23.52;56.28
18749;BME280;9503;53.560;10.246;2022-09-14T11:48:55;99870.44;;;23.89;54.20
18749;BME280;9503;53.560;10.246;2022-09-14T11:51:30;99868.31;;;23.63;55.17
18749;BME280;9503;53.560;10.246;2022-09-14T11:53:58;99868.69;;;23.43;56.37
18749;BME280;9503;53.560;10.246;2022-09-14T11:56:28;99862.34;;;23.05;56.88
18749;BME280;9503;53.560;10.246;2022-09-14T11:58:56;99856.38;;;22.97;57.19
18749;BME280;9503;53.560;10.246;2022-09-14T12:01:27;99854.00;;;22.22;58.99
18749;BME280;9503;53.560;10.246;2022-09-14T12:04:09;99853.19;;;22.18;59.37
18749;BME280;9503;53.560;10.246;2022-09-14T12:06:53;99857.94;;;21.83;60.76
18749;BME280;9503;53.560;10.246;2022-09-14T12:09:50;99861.03;;;21.38;61.74
18749;BME280;9503;53.560;10.246;2022-09-14T12:12:31;99858.94;;;20.71;63.94
18749;BME280;9503;53.560;10.246;2022-09-14T12:15:00;99851.81;;;21.01;64.16
18749;BME280;9503;53.560;10.246;2022-09-14T12:17:30;99863.03;;;21.09;64.36
18749;BME280;9503;53.560;10.246;2022-09-14T12:20:19;99865.63;;;21.06;63.98
18749;BME280;9503;53.560;10.246;2022-09-14T12:22:50;99865.44;;;21.33;63.92
18749;BME280;9503;53.560;10.246;2022-09-14T12:25:18;99863.94;;;20.98;64.88
18749;BME280;9503;53.560;10.246;2022-09-14T12:27:49;99863.22;;;20.81;65.88
18749;BME280;9503;53.560;10.246;2022-09-14T12:31:10;99853.72;;;20.74;64.96
18749;BME280;9503;53.560;10.246;2022-09-14T12:36:58;99861.72;;;20.51;67.16
18749;BME280;9503;53.560;10.246;2022-09-14T12:39:27;99864.94;;;20.87;66.33
18749;BME280;9503;53.560;10.246;2022-09-14T12:42:02;99866.06;;;20.43;68.44
18749;BME280;9503;53.560;10.246;2022-09-14T12:44:41;99863.28;;;20.75;67.93
18749;BME280;9503;53.560;10.246;2022-09-14T12:47:36;99866.84;;;20.62;67.71
18749;BME280;9503;53.560;10.246;2022-09-14T12:50:07;99876.97;;;21.02;67.06
18749;BME280;9503;53.560;10.246;2022-09-14T12:52:41;99865.06;;;20.67;67.40
18749;BME280;9503;53.560;10.246;2022-09-14T12:55:20;99871.13;;;20.72;67.13
18749;BME280;9503;53.560;10.246;2022-09-14T12:57:57;99870.66;;;21.32;65.95
18749;BME280;9503;53.560;10.246;2022-09-14T13:00:27;99869.34;;;21.74;63.98
18749;BME280;9503;53.560;10.246;2022-09-14T13:03:06;99864.91;;;21.84;63.54
18749;BME280;9503;53.560;10.246;2022-09-14T13:05:42;99867.75;;;21.62;64.50
18749;BME280;9503;53.560;10.246;2022-09-14T13:08:09;99867.47;;;21.85;63.70
18749;BME280;9503;53.560;10.246;2022-09-14T13:10:39;99856.78;;;22.08;63.77
18749;BME280;9503;53.560;10.246;2022-09-14T13:13:14;99854.72;;;21.61;65.47
18749;BME280;9503;53.560;10.246;2022-09-14T13:15:49;99852.88;;;21.69;65.29
18749;BME280;9503;53.560;10.246;2022-09-14T13:18:27;99847.84;;;21.54;65.48
18749;BME280;9503;53.560;10.246;2022-09-14T13:20:56;99846.03;;;21.59;65.07